Página principal
METAR-TAF:

METAR-TAF

Aeroportos :

St. Michael, Alasca, Estados Unidos

latitude: 63-29-24N, longitude: 162-06-37W, altura: 30 m

Observação actual do tempo

O boletim foi feito há 42 minutos, às 20:56 UTC
Vento 9 kt de norte
Temperatura 8°C
Humidade 76%
Pressão 1027 hPa
Visibilidade: 16.1 km
Encobertoa uma altura de 1800 ft

METAR: PAMK 142056Z AUTO 36009KT 10SM OVC018 08/04 A3033 RMK AO2 SLP272 T00830044 53002

Hora: 13:38 (21:38 UTC)


TAF: em falta

Observações e previsões do tempo de mais de 4000 aeroportos (mensagens METAR e TAF).

As estações disponíveis são os pontos amarelos e vermelhos sobre o mapa.

Mova o rato sobre o mapa para ver o nome da estação.

Depois clique no ponto para visualizar as observações e previsões meteorológicas.

Para alterar o mapa : clique nos botões verdes com uma cruz preta para aumentar o zoom; no botão verde com uma pitada de zoom; ou nas setas verdes para mapas adjacentes.


METAR-TAF: